Time;durP1;ratioP1;P1;durP2;ratioP2;P2;SDS_P1;SDS_P2;PMS_P1;PMS_P2;Temp;Humidity;BMP_temperature;BMP_pressure;BME280_temperature;BME280_humidity;BME280_pressure;Samples;Min_cycle;Max_cycle;Signal;HPM_P1;HPM_P2
2023/07/05 00:02:14;;;;;;;12.52;10.13;;;;;;;-141.97;61.68;47480.63;5013273;28;20190;-83
2023/07/05 00:04:39;;;;;;;12.43;10.20;;;;;;;-141.97;62.29;47536.38;5012646;28;20167;-82
2023/07/05 00:07:05;;;;;;;14.23;10.30;;;;;;;-141.97;61.79;47434.50;5012454;28;20221;-83
2023/07/05 00:09:31;;;;;;;13.25;10.00;;;;;;;-141.97;61.94;47446.03;5009255;28;20176;-84
2023/07/05 00:11:56;;;;;;;15.30;10.65;;;;;;;-141.97;61.85;47417.22;5012785;28;20167;-84
2023/07/05 00:14:22;;;;;;;11.38;9.73;;;;;;;-141.97;62.02;47442.19;5012491;28;20152;-83
2023/07/05 00:16:47;;;;;;;12.95;9.75;;;;;;;-141.97;61.60;47421.06;5012172;28;20190;-80
2023/07/05 00:19:13;;;;;;;12.93;10.07;;;;;;;-141.97;61.46;47411.44;5012091;28;20246;-82
2023/07/05 00:21:38;;;;;;;13.20;10.23;;;;;;;-141.97;61.88;47426.81;5012119;28;20201;-83
2023/07/05 00:24:04;;;;;;;13.05;10.48;;;;;;;-141.97;62.08;47422.97;5011985;28;20202;-84
2023/07/05 00:26:30;;;;;;;15.70;10.52;;;;;;;-141.97;61.96;47330.72;5012946;28;20170;-84
2023/07/05 00:28:55;;;;;;;14.68;11.00;;;;;;;-141.97;62.02;47436.44;5012162;28;20269;-84
2023/07/05 00:31:20;;;;;;;16.00;11.20;;;;;;;-141.97;62.70;47424.91;5012605;28;20207;-84
2023/07/05 00:33:47;;;;;;;15.10;11.13;;;;;;;-141.97;62.98;47595.97;5013073;28;20159;-84
2023/07/05 00:36:13;;;;;;;16.33;10.83;;;;;;;-141.97;63.29;47457.56;5011845;28;20299;-84
2023/07/05 00:38:39;;;;;;;15.23;11.30;;;;;;;-141.97;63.73;47353.78;5012288;28;20406;-85
2023/07/05 00:41:04;;;;;;;15.97;10.97;;;;;;;-141.97;63.67;47449.88;5018195;28;20702;-85
2023/07/05 00:43:29;;;;;;;16.97;12.00;;;;;;;-141.97;63.22;47451.81;5032068;28;20166;-85
2023/07/05 00:46:02;;;;;;;15.80;11.97;;;;;;;-141.97;63.10;47455.66;5033888;28;20158;-86
2023/07/05 00:48:35;;;;;;;17.03;12.67;;;;;;;-141.97;63.45;47461.41;5032898;28;20174;-85
2023/07/05 00:51:06;;;;;;;17.13;12.80;;;;;;;-141.97;63.76;47461.41;5032742;28;20178;-85
2023/07/05 00:53:36;;;;;;;16.10;13.43;;;;;;;-141.97;63.62;47417.22;5032099;28;21003;-84
2023/07/05 00:56:09;;;;;;;17.43;14.20;;;;;;;-141.97;63.51;47447.97;5036043;28;20237;-84
2023/07/05 00:58:35;;;;;;;21.50;14.07;;;;;;;-141.97;63.90;47474.88;5045142;28;20166;-84
2023/07/05 01:01:01;;;;;;;16.27;13.60;;;;;;;-141.97;64.34;47405.69;5043915;28;20692;-84
2023/07/05 01:03:27;;;;;;;17.33;12.77;;;;;;;-141.97;64.51;47484.47;5035987;28;20185;-84
2023/07/05 01:05:55;;;;;;;18.53;13.10;;;;;;;-141.97;64.88;47653.63;5035211;28;20166;-85
2023/07/05 01:08:21;;;;;;;17.53;12.47;;;;;;;-141.97;64.89;47248.09;5034145;28;20540;-85
2023/07/05 01:10:57;;;;;;;18.90;12.63;;;;;;;-141.97;64.54;47396.06;5035675;28;20174;-85
2023/07/05 01:13:32;;;;;;;16.67;12.23;;;;;;;-141.97;64.84;47369.16;5036324;28;20692;-85
2023/07/05 01:16:23;;;;;;;18.30;12.53;;;;;;;-141.97;64.87;47461.41;5039565;28;20678;-85
2023/07/05 01:19:18;;;;;;;16.80;13.07;;;;;;;-141.97;65.07;47480.63;5049388;28;20186;-85
2023/07/05 01:21:52;;;;;;;19.00;13.40;;;;;;;-141.97;64.69;47411.44;5027166;28;20202;-85
2023/07/05 01:24:35;;;;;;;22.13;12.80;;;;;;;-141.97;64.96;47457.56;5028481;28;20389;-85
2023/07/05 01:27:26;;;;;;;16.13;12.17;;;;;;;-141.97;64.89;47461.41;5015328;28;20217;-85
2023/07/05 01:30:10;;;;;;;15.87;12.53;;;;;;;-141.97;65.28;47428.75;5021629;28;20257;-85
2023/07/05 01:32:36;;;;;;;19.40;13.23;;;;;;;-141.97;66.22;47476.78;5036299;28;20194;-84
2023/07/05 01:35:13;;;;;;;18.10;14.10;;;;;;;-141.97;65.85;47451.81;5049659;28;20329;-83
2023/07/05 01:37:43;;;;;;;17.37;13.20;;;;;;;-141.97;66.15;47488.31;5018762;28;20186;-84
2023/07/05 01:40:34;;;;;;;19.60;14.27;;;;;;;-141.97;66.13;47484.47;5012441;28;20642;-84
2023/07/05 01:43:09;;;;;;;14.90;12.57;;;;;;;-141.97;65.80;47444.13;5014766;28;20285;-84
2023/07/05 01:45:50;;;;;;;16.60;12.50;;;;;;;-141.97;66.04;47422.97;5017515;28;20188;-84
2023/07/05 01:48:15;;;;;;;16.20;13.20;;;;;;;-141.97;66.10;47480.63;5032958;28;20170;-85
2023/07/05 01:50:52;;;;;;;16.93;12.73;;;;;;;-141.97;65.61;47471.03;5032686;28;20753;-85
2023/07/05 01:53:24;;;;;;;16.93;12.73;;;;;;;-141.97;65.55;47474.88;5015220;28;20256;-85
2023/07/05 01:55:54;;;;;;;18.47;13.40;;;;;;;-141.97;65.88;47342.25;5018769;28;20217;-85
2023/07/05 01:58:25;;;;;;;19.63;14.10;;;;;;;-141.97;66.54;47461.41;5027037;28;20285;-85
2023/07/05 02:00:51;;;;;;;18.43;13.93;;;;;;;-141.97;66.14;47446.03;5030353;28;20217;-85
2023/07/05 02:03:22;;;;;;;19.13;13.87;;;;;;;-141.97;66.46;47490.25;5035038;28;20208;-85
2023/07/05 02:05:48;;;;;;;24.37;15.60;;;;;;;-141.97;66.99;47430.66;5035303;28;20173;-85
2023/07/05 02:08:14;;;;;;;24.47;17.23;;;;;;;-141.97;67.19;47474.88;5035518;28;20158;-86
2023/07/05 02:10:43;;;;;;;22.70;15.60;;;;;;;-141.97;67.21;47490.25;5035167;28;20932;-86
2023/07/05 02:13:10;;;;;;;22.23;15.80;;;;;;;-141.97;67.87;47459.50;5034673;28;20178;-86
2023/07/05 02:15:37;;;;;;;21.97;15.03;;;;;;;-141.97;67.89;47496.00;5034521;28;20661;-85
2023/07/05 02:18:03;;;;;;;20.30;14.60;;;;;;;-141.97;68.49;47492.16;5036543;28;20155;-85
2023/07/05 02:20:30;;;;;;;29.80;16.60;;;;;;;-141.97;68.91;47449.88;5031122;28;20721;-86
2023/07/05 02:22:56;;;;;;;28.07;18.37;;;;;;;-141.97;69.40;47407.59;5033153;28;20186;-86
2023/07/05 02:25:21;;;;;;;28.97;19.77;;;;;;;-141.97;69.33;47480.63;5034429;28;20178;-84
2023/07/05 02:27:47;;;;;;;26.00;16.93;;;;;;;-141.97;69.23;47403.75;5035968;28;20594;-85
2023/07/05 02:30:13;;;;;;;29.03;17.67;;;;;;;-141.97;69.58;47501.78;5036581;28;20185;-84
2023/07/05 02:32:38;;;;;;;28.57;17.50;;;;;;;-141.97;69.31;47570.97;5036869;28;20162;-85
2023/07/05 02:35:04;;;;;;;27.30;16.57;;;;;;;-141.97;70.21;47486.41;5034964;28;20232;-84
2023/07/05 02:37:32;;;;;;;31.90;17.40;;;;;;;-141.97;70.44;47463.34;5035336;28;20197;-84
2023/07/05 02:39:58;;;;;;;30.33;17.67;;;;;;;-141.97;70.21;47453.72;5039061;28;20170;-85
2023/07/05 02:42:24;;;;;;;31.17;18.60;;;;;;;-141.97;70.34;47499.84;5035270;28;20174;-84
2023/07/05 02:44:51;;;;;;;25.17;17.40;;;;;;;-141.97;70.69;47311.50;5034470;28;20672;-84
2023/07/05 02:47:18;;;;;;;25.37;16.30;;;;;;;-141.97;70.64;47484.47;5039318;28;20167;-84
2023/07/05 02:49:44;;;;;;;25.17;15.87;;;;;;;-141.97;71.85;47513.31;5041682;28;20166;-84
2023/07/05 02:52:10;;;;;;;19.03;14.73;;;;;;;-141.97;72.26;47634.41;5038697;28;20251;-86
2023/07/05 02:54:36;;;;;;;21.33;14.63;;;;;;;-141.97;72.01;47667.06;5036943;28;20185;-85
2023/07/05 02:57:01;;;;;;;22.30;15.20;;;;;;;-141.97;72.20;47511.38;5038029;28;20213;-84
2023/07/05 02:59:27;;;;;;;24.47;15.53;;;;;;;-141.97;72.26;47474.88;5039659;28;20174;-84
2023/07/05 03:01:52;;;;;;;20.97;14.80;;;;;;;-141.97;72.29;47490.25;5036278;28;20178;-84
2023/07/05 03:04:18;;;;;;;22.63;15.30;;;;;;;-141.97;72.33;47286.53;5042981;28;20169;-85
2023/07/05 03:06:44;;;;;;;21.23;15.23;;;;;;;-141.97;72.35;47519.06;5044958;28;20174;-85
2023/07/05 03:09:11;;;;;;;22.63;16.13;;;;;;;-141.97;71.77;47430.66;5050477;28;20277;-85
2023/07/05 03:11:37;;;;;;;22.80;15.63;;;;;;;-141.97;71.74;47440.28;5037840;28;20249;-85
2023/07/05 03:14:02;;;;;;;22.33;15.67;;;;;;;-141.97;71.66;47492.16;5045726;28;20182;-85
2023/07/05 03:16:31;;;;;;;21.37;15.77;;;;;;;-141.97;71.97;47522.91;5034734;28;20256;-84
2023/07/05 03:18:56;;;;;;;21.43;15.93;;;;;;;-141.97;71.72;47501.78;5038264;28;20209;-84
2023/07/05 03:21:21;;;;;;;21.90;16.50;;;;;;;-141.97;71.78;47499.84;5042397;28;20263;-83
2023/07/05 03:23:47;;;;;;;22.57;16.03;;;;;;;-141.97;71.51;47492.16;5033862;28;20202;-85
2023/07/05 03:26:13;;;;;;;23.00;16.43;;;;;;;-141.97;70.89;47424.91;5030283;28;20170;-85
2023/07/05 03:28:38;;;;;;;22.93;15.43;;;;;;;-141.97;70.78;47296.13;5032730;28;20178;-85
2023/07/05 03:31:06;;;;;;;24.03;15.60;;;;;;;-141.97;70.27;47692.06;5032982;28;20538;-86
2023/07/05 03:33:33;;;;;;;21.80;15.57;;;;;;;-141.97;70.44;47476.78;5033284;28;20220;-84
2023/07/05 03:36:01;;;;;;;21.70;15.63;;;;;;;-141.97;70.66;47507.53;5032763;28;20280;-85
2023/07/05 03:38:28;;;;;;;23.03;15.63;;;;;;;-141.97;71.76;47469.09;5033168;28;20178;-84
2023/07/05 03:41:04;;;;;;;25.73;15.67;;;;;;;-141.97;72.37;47503.69;5033624;28;20162;-84
2023/07/05 03:43:35;;;;;;;23.43;15.50;;;;;;;-141.97;72.43;47476.78;5041257;28;20193;-85
2023/07/05 03:46:03;;;;;;;28.70;19.00;;;;;;;-141.97;71.91;47336.50;5047387;28;20236;-85
2023/07/05 03:48:30;;;;;;;24.00;17.47;;;;;;;-141.97;71.05;47472.94;5032978;28;20166;-84
2023/07/05 03:50:58;;;;;;;29.47;18.60;;;;;;;-141.97;70.51;47478.72;5032488;28;20236;-85
2023/07/05 03:53:23;;;;;;;31.37;17.67;;;;;;;-141.97;69.93;47649.78;5033095;28;20252;-84
2023/07/05 03:55:49;;;;;;;35.70;19.80;;;;;;;-141.97;69.74;47672.84;5029335;28;20672;-83
2023/07/05 03:58:15;;;;;;;33.87;20.53;;;;;;;-141.97;69.57;47496.00;5032255;28;20170;-83
2023/07/05 04:00:40;;;;;;;30.87;18.73;;;;;;;-141.97;69.70;47494.09;5032771;28;20610;-83
2023/07/05 04:03:05;;;;;;;27.57;18.53;;;;;;;-141.97;69.72;47496.00;5030603;28;20164;-84
2023/07/05 04:05:32;;;;;;;24.90;17.23;;;;;;;-141.97;69.75;47488.31;5031157;28;20230;-83
2023/07/05 04:07:57;;;;;;;27.93;17.10;;;;;;;-141.97;68.94;47422.97;5032367;28;20161;-83
2023/07/05 04:10:22;;;;;;;23.93;16.43;;;;;;;-141.97;68.30;47392.22;5031948;28;20335;-84
2023/07/05 04:12:49;;;;;;;23.30;17.27;;;;;;;-141.97;67.86;47521.00;5032108;28;20547;-84
2023/07/05 04:15:14;;;;;;;25.63;16.67;;;;;;;-141.97;68.59;47499.84;5032266;28;20178;-84
2023/07/05 04:17:39;;;;;;;21.20;16.33;;;;;;;-141.97;69.12;47476.78;5034382;28;20181;-83
2023/07/05 04:20:05;;;;;;;27.07;17.80;;;;;;;-141.97;69.48;47503.69;5034856;28;20180;-83
2023/07/05 04:22:31;;;;;;;22.23;17.60;;;;;;;-141.97;68.88;47428.75;5032647;28;20638;-84
2023/07/05 04:24:57;;;;;;;26.63;18.13;;;;;;;-141.97;68.75;47480.63;5034866;28;20196;-85
2023/07/05 04:27:22;;;;;;;25.20;18.17;;;;;;;-141.97;68.61;47480.63;5033301;28;20170;-84
2023/07/05 04:29:48;;;;;;;25.07;17.40;;;;;;;-141.97;68.27;47317.28;5021985;28;20257;-84
2023/07/05 04:32:13;;;;;;;24.60;17.37;;;;;;;-141.97;68.16;47480.63;5034952;28;20223;-83
2023/07/05 04:34:40;;;;;;;29.67;18.17;;;;;;;-141.97;67.15;47482.56;5034350;28;20681;-83
2023/07/05 04:37:07;;;;;;;25.43;18.30;;;;;;;-141.97;67.26;47511.38;5033756;28;20209;-83
2023/07/05 04:39:32;;;;;;;24.10;17.80;;;;;;;-141.97;66.86;47474.88;5025309;28;20826;-84
2023/07/05 04:41:58;;;;;;;26.80;17.63;;;;;;;-141.97;66.63;47447.97;5032034;28;20260;-85
2023/07/05 04:44:23;;;;;;;26.57;18.27;;;;;;;-141.97;66.12;47507.53;5020480;28;20186;-85
2023/07/05 04:46:49;;;;;;;26.27;18.47;;;;;;;-141.97;65.96;47492.16;5030579;28;20520;-81
2023/07/05 04:49:14;;;;;;;24.43;18.27;;;;;;;-141.97;65.59;47703.59;5032013;28;20173;-84
2023/07/05 04:51:39;;;;;;;23.73;17.20;;;;;;;-141.97;64.43;47474.88;5030956;28;20216;-83
2023/07/05 04:54:05;;;;;;;21.73;16.13;;;;;;;-141.97;64.23;47461.41;5031605;28;20628;-82
2023/07/05 04:56:30;;;;;;;21.47;16.73;;;;;;;-141.97;64.89;47469.09;5031580;28;20269;-82
2023/07/05 04:58:57;;;;;;;21.50;16.37;;;;;;;-141.97;64.94;47515.22;5031189;28;20190;-81
2023/07/05 05:01:22;;;;;;;20.37;16.33;;;;;;;-141.97;65.08;47718.97;5030928;28;20201;-82
2023/07/05 05:03:48;;;;;;;25.03;16.60;;;;;;;-141.97;65.02;47449.88;5031687;28;20197;-82
2023/07/05 05:06:14;;;;;;;24.03;17.03;;;;;;;-141.97;64.59;47426.81;5030511;28;20269;-82
2023/07/05 05:08:39;;;;;;;24.80;17.23;;;;;;;-141.97;64.25;47480.63;5032109;28;20262;-81
2023/07/05 05:11:05;;;;;;;21.38;16.25;;;;;;;-141.97;63.85;47486.41;5031616;28;20202;-82
2023/07/05 05:13:33;;;;;;;20.83;16.88;;;;;;;-141.97;63.86;47469.09;5031679;28;20857;-82
2023/07/05 05:16:00;;;;;;;22.02;17.63;;;;;;;-141.97;64.41;47440.28;5031698;28;20187;-82
2023/07/05 05:18:28;;;;;;;22.02;16.80;;;;;;;-141.97;64.34;47484.47;5031517;28;20162;-82
2023/07/05 05:20:53;;;;;;;23.05;17.15;;;;;;;-141.97;64.64;47461.41;5030329;28;21007;-82
2023/07/05 05:23:18;;;;;;;25.55;17.52;;;;;;;-141.97;64.84;47465.25;5030673;28;20298;-82
2023/07/05 05:25:46;;;;;;;22.42;16.85;;;;;;;-141.97;63.42;47440.28;5031522;28;20280;-82
2023/07/05 05:28:12;;;;;;;21.95;17.27;;;;;;;-141.97;62.49;47398.00;5031515;28;20164;-82
2023/07/05 05:30:39;;;;;;;23.15;16.92;;;;;;;-141.97;62.27;47499.84;5030570;28;20158;-82
2023/07/05 05:33:04;;;;;;;27.08;18.30;;;;;;;-141.97;61.29;47494.09;5031245;28;20199;-81
2023/07/05 05:35:31;;;;;;;21.30;15.93;;;;;;;-141.97;60.38;47413.38;5029957;28;20332;-82
2023/07/05 05:37:57;;;;;;;21.58;16.70;;;;;;;-141.97;59.42;47471.03;5030572;28;20726;-82
2023/07/05 05:40:22;;;;;;;20.52;16.60;;;;;;;-141.97;58.91;47501.78;5032997;28;20260;-82
2023/07/05 05:42:48;;;;;;;19.58;15.50;;;;;;;-141.97;58.59;47465.25;5035073;28;20608;-81
2023/07/05 05:45:13;;;;;;;23.42;16.40;;;;;;;-141.97;57.44;47440.28;5034962;28;20169;-83
2023/07/05 05:47:39;;;;;;;23.15;16.45;;;;;;;-141.97;57.27;47446.03;5034447;28;20183;-80
2023/07/05 05:50:05;;;;;;;22.48;16.17;;;;;;;-141.97;57.25;47463.34;5033769;28;20333;-80
2023/07/05 05:52:31;;;;;;;19.17;16.25;;;;;;;-141.97;56.42;47449.88;5034655;28;20624;-82
2023/07/05 05:54:57;;;;;;;21.48;17.38;;;;;;;-141.97;56.48;47465.25;5034610;28;20167;-82
2023/07/05 05:57:22;;;;;;;19.95;16.15;;;;;;;-141.97;55.95;47428.75;5034260;28;20629;-82
2023/07/05 05:59:47;;;;;;;20.38;17.08;;;;;;;-141.97;56.31;47428.75;5034869;28;20310;-81
2023/07/05 06:02:13;;;;;;;23.00;16.30;;;;;;;-141.97;56.54;47432.59;5034421;28;20564;-83
2023/07/05 06:04:38;;;;;;;21.33;16.25;;;;;;;-141.97;55.54;47426.81;5034367;28;20157;-82
2023/07/05 06:07:04;;;;;;;25.85;17.70;;;;;;;-141.97;54.70;47430.66;5034321;28;20154;-82
2023/07/05 06:09:29;;;;;;;21.05;16.02;;;;;;;-141.97;54.37;47426.81;5048153;28;20264;-82
2023/07/05 06:11:54;;;;;;;24.83;16.73;;;;;;;-141.97;54.08;47449.88;5043559;28;20171;-82
2023/07/05 06:14:20;;;;;;;20.77;16.45;;;;;;;-141.97;54.48;47457.56;5035465;28;20172;-82
2023/07/05 06:16:45;;;;;;;22.45;17.25;;;;;;;-141.97;55.31;47426.81;5035256;28;20198;-81
2023/07/05 06:19:11;;;;;;;23.60;17.63;;;;;;;-141.97;54.78;47396.06;5033925;28;20288;-81
2023/07/05 06:21:36;;;;;;;20.98;16.83;;;;;;;-141.97;54.09;47396.06;5033786;28;20269;-82
2023/07/05 06:24:02;;;;;;;23.42;17.45;;;;;;;-141.97;53.83;47426.81;5034668;28;20181;-81
2023/07/05 06:26:27;;;;;;;27.85;17.60;;;;;;;-141.97;53.92;47442.19;5036068;28;20169;-82
2023/07/05 06:28:52;;;;;;;21.58;17.33;;;;;;;-141.97;53.98;47382.63;5031864;28;20207;-81
2023/07/05 06:31:19;;;;;;;23.88;17.17;;;;;;;-141.97;54.20;47438.34;5033374;28;20180;-82
2023/07/05 06:33:44;;;;;;;20.55;17.10;;;;;;;-141.97;53.36;47446.03;5033780;28;20171;-83
2023/07/05 06:36:10;;;;;;;25.30;17.73;;;;;;;-141.97;52.67;47424.91;5033704;28;20305;-81
2023/07/05 06:38:36;;;;;;;22.80;17.15;;;;;;;-141.97;52.65;47428.75;5032994;28;20189;-81
2023/07/05 06:41:02;;;;;;;21.25;16.48;;;;;;;-141.97;51.36;47405.69;5032229;28;20194;-81
2023/07/05 06:43:27;;;;;;;23.23;17.70;;;;;;;-141.97;51.28;47396.06;5033634;28;20177;-81
2023/07/05 06:45:54;;;;;;;21.50;17.42;;;;;;;-141.97;51.36;47388.38;5033821;28;20604;-82
2023/07/05 06:48:21;;;;;;;22.65;17.95;;;;;;;-141.97;50.69;47680.53;5033931;28;20213;-82
2023/07/05 06:50:54;;;;;;;22.00;17.40;;;;;;;-141.97;50.38;47363.41;5032333;28;20180;-81
2023/07/05 06:53:20;;;;;;;23.75;17.45;;;;;;;-141.97;50.12;47394.16;5033495;28;20606;-81
2023/07/05 06:55:48;;;;;;;24.27;18.20;;;;;;;-141.97;50.15;47407.59;5033325;28;20744;-81
2023/07/05 06:58:14;;;;;;;23.17;18.20;;;;;;;-141.97;49.83;47407.59;5031226;28;20192;-82
2023/07/05 07:00:39;;;;;;;22.42;18.33;;;;;;;-141.97;49.71;47444.13;5031862;28;20207;-82
2023/07/05 07:03:05;;;;;;;22.83;17.90;;;;;;;-141.97;51.58;47430.66;5032111;28;20245;-82
2023/07/05 07:05:31;;;;;;;25.60;17.70;;;;;;;-141.97;51.24;47415.28;5032872;28;20528;-82
2023/07/05 07:07:56;;;;;;;23.05;18.08;;;;;;;-141.97;50.77;47401.84;5032736;28;20166;-82
2023/07/05 07:10:22;;;;;;;21.25;18.10;;;;;;;-141.97;49.76;47338.41;5031337;28;20613;-83
2023/07/05 07:12:47;;;;;;;21.17;17.67;;;;;;;-141.97;49.19;47357.63;5032950;28;20173;-83
2023/07/05 07:15:13;;;;;;;23.85;17.38;;;;;;;-141.97;49.28;47365.31;5032614;28;20161;-83
2023/07/05 07:17:38;;;;;;;25.23;17.60;;;;;;;-141.97;48.81;47392.22;5032669;28;20235;-83
2023/07/05 07:20:04;;;;;;;24.17;17.90;;;;;;;-141.97;50.03;47619.03;5032243;28;20181;-83
2023/07/05 07:22:30;;;;;;;21.70;17.38;;;;;;;-141.97;49.72;47353.78;5031711;28;20612;-82
2023/07/05 07:24:55;;;;;;;20.52;16.67;;;;;;;-141.97;49.05;47386.47;5032162;28;20177;-81
2023/07/05 07:27:21;;;;;;;20.67;16.90;;;;;;;-141.97;48.79;47413.38;5032864;28;20239;-83
2023/07/05 07:29:46;;;;;;;21.55;17.83;;;;;;;-141.97;50.09;47419.13;5032284;28;20173;-82
2023/07/05 07:32:11;;;;;;;21.02;17.80;;;;;;;-141.97;50.03;47357.63;5032644;28;20168;-82
2023/07/05 07:34:37;;;;;;;22.73;17.80;;;;;;;-141.97;49.95;47380.69;5031903;28;20166;-81
2023/07/05 07:37:03;;;;;;;25.75;18.42;;;;;;;-141.97;49.68;47373.00;5032007;28;20690;-82
2023/07/05 07:39:31;;;;;;;19.65;17.38;;;;;;;-141.97;48.89;47413.38;5032062;28;20155;-82
2023/07/05 07:41:57;;;;;;;21.63;17.42;;;;;;;-141.97;47.63;47373.00;5031500;28;20238;-82
2023/07/05 07:44:22;;;;;;;22.13;18.33;;;;;;;-141.97;48.06;47380.69;5031698;28;20161;-82
2023/07/05 07:46:48;;;;;;;24.35;19.13;;;;;;;-141.97;47.24;47338.41;5031833;28;20519;-82
2023/07/05 07:49:13;;;;;;;20.75;18.23;;;;;;;-141.97;47.12;47376.84;5031837;28;20168;-82
2023/07/05 07:51:43;;;;;;;24.85;18.45;;;;;;;-141.97;45.97;47401.84;5031468;28;20184;-82
2023/07/05 07:54:14;;;;;;;22.52;18.08;;;;;;;-141.97;46.94;47323.03;5032259;28;20162;-83
2023/07/05 07:56:47;;;;;;;24.00;17.77;;;;;;;-141.97;46.42;47365.31;5032464;28;20192;-82
2023/07/05 07:59:13;;;;;;;23.27;19.20;;;;;;;-141.97;45.66;47519.06;5031924;28;20602;-82
2023/07/05 08:01:39;;;;;;;21.17;18.58;;;;;;;-141.97;46.53;47419.13;5031225;28;20170;-82
2023/07/05 08:04:09;;;;;;;22.45;19.08;;;;;;;-141.97;46.14;47369.16;5030794;28;20176;-82
2023/07/05 08:06:42;;;;;;;24.13;18.85;;;;;;;-141.97;45.44;47388.38;5031966;28;20162;-82
2023/07/05 08:09:10;;;;;;;27.02;19.80;;;;;;;-141.97;45.70;47365.31;5032880;28;20172;-83
2023/07/05 08:11:36;;;;;;;23.08;19.77;;;;;;;-141.97;45.71;47363.41;5032797;28;20249;-83
2023/07/05 08:14:02;;;;;;;23.95;19.75;;;;;;;-141.97;46.67;47394.16;5031811;28;20177;-81
2023/07/05 08:16:28;;;;;;;22.67;19.45;;;;;;;-141.97;45.24;47365.31;5032393;28;20201;-83
2023/07/05 08:18:53;;;;;;;23.10;18.17;;;;;;;-141.97;45.23;47357.63;5032850;28;20178;-83
2023/07/05 08:21:19;;;;;;;23.63;17.95;;;;;;;-141.97;45.06;47359.56;5033031;28;20175;-83
2023/07/05 08:23:45;;;;;;;22.05;18.40;;;;;;;-141.97;44.52;47378.78;5032234;28;20312;-82
2023/07/05 08:26:12;;;;;;;21.10;18.15;;;;;;;-141.97;44.74;47342.25;5032648;28;20232;-83
2023/07/05 08:28:37;;;;;;;21.92;18.65;;;;;;;-141.97;44.29;47430.66;5032155;28;20161;-83
2023/07/05 08:31:04;;;;;;;20.98;18.08;;;;;;;-141.97;43.57;47265.38;5034142;28;20166;-83
2023/07/05 08:33:31;;;;;;;22.98;18.08;;;;;;;-141.97;43.12;47676.69;5037856;28;20181;-83
2023/07/05 08:36:02;;;;;;;22.83;18.23;;;;;;;-141.97;42.66;47301.91;5047515;28;20226;-83
2023/07/05 08:38:28;;;;;;;21.65;17.50;;;;;;;-141.97;42.40;47461.41;5036236;28;20248;-82
2023/07/05 08:40:58;;;;;;;22.15;18.92;;;;;;;-141.97;41.97;47430.66;5034215;28;20193;-84
2023/07/05 08:43:41;;;;;;;20.13;17.45;;;;;;;-141.97;42.97;47319.19;5033037;28;20668;-84
2023/07/05 08:46:12;;;;;;;20.33;17.88;;;;;;;-141.97;41.90;47321.13;5034292;28;20158;-84
2023/07/05 08:48:38;;;;;;;21.75;16.40;;;;;;;-141.97;41.25;47205.81;5032161;28;20185;-84
2023/07/05 08:51:05;;;;;;;20.05;16.52;;;;;;;-141.97;41.10;47299.97;5032166;28;20212;-84
2023/07/05 08:53:34;;;;;;;19.25;17.20;;;;;;;-141.97;40.49;47203.88;5032674;28;20162;-85
2023/07/05 08:56:09;;;;;;;19.25;16.75;;;;;;;-141.97;39.62;47284.59;5034686;28;20719;-84
2023/07/05 08:58:46;;;;;;;18.38;16.38;;;;;;;-141.97;40.17;47294.22;5030929;28;20170;-84
2023/07/05 09:01:23;;;;;;;21.05;16.92;;;;;;;-141.97;39.52;47296.13;5032950;28;20601;-84
2023/07/05 09:03:49;;;;;;;17.92;15.65;;;;;;;-141.97;39.27;47294.22;5032831;28;20173;-82
2023/07/05 09:06:23;;;;;;;19.58;15.02;;;;;;;-141.97;38.53;47292.28;5033686;28;20155;-83
2023/07/05 09:09:26;;;;;;;17.02;13.98;;;;;;;-141.97;37.99;47250.00;5032295;28;20169;-83
2023/07/05 09:12:06;;;;;;;18.13;15.00;;;;;;;-141.97;38.35;47292.28;5009897;28;20209;-83
2023/07/05 09:14:59;;;;;;;18.75;14.30;;;;;;;-141.97;38.36;47273.06;5013295;28;20768;-83
2023/07/05 09:18:04;;;;;;;15.50;13.70;;;;;;;-141.97;37.91;47290.38;5013655;28;20282;-83
2023/07/05 09:20:39;;;;;;;16.20;13.65;;;;;;;-141.97;37.77;47311.50;4976170;28;20183;-83
2023/07/05 09:23:12;;;;;;;16.23;13.52;;;;;;;-141.97;38.41;47284.59;4975973;28;20166;-83
2023/07/05 09:25:43;;;;;;;15.93;14.20;;;;;;;-141.97;38.26;47601.72;4975584;28;20188;-82
2023/07/05 09:28:24;;;;;;;17.13;14.98;;;;;;;-141.97;38.32;47305.75;4975157;28;20188;-83
2023/07/05 09:30:50;;;;;;;15.57;13.98;;;;;;;-141.97;38.21;47309.59;4975871;28;20187;-83
2023/07/05 09:33:53;;;;;;;18.98;14.18;;;;;;;-141.97;37.25;47469.09;4975563;28;20168;-83
2023/07/05 09:36:22;;;;;;;16.25;14.55;;;;;;;-141.97;37.65;47273.06;4936166;29;20243;-83
2023/07/05 09:38:54;;;;;;;19.42;15.25;;;;;;;-141.97;38.50;47284.59;4935814;29;20245;-83
2023/07/05 09:41:35;;;;;;;18.08;15.20;;;;;;;-141.97;38.81;47307.66;4935260;29;20193;-83
2023/07/05 09:44:01;;;;;;;22.40;16.13;;;;;;;-141.97;39.23;47296.13;4931381;29;20285;-83
2023/07/05 09:46:30;;;;;;;18.58;16.50;;;;;;;-141.97;39.88;47294.22;4915572;29;20598;-83
2023/07/05 09:48:56;;;;;;;20.58;15.90;;;;;;;-141.97;39.81;47292.28;4916322;29;20162;-83
2023/07/05 09:51:22;;;;;;;17.77;14.75;;;;;;;-141.97;38.17;47326.88;4916335;29;20200;-83
2023/07/05 09:53:56;;;;;;;19.73;15.48;;;;;;;-141.97;38.71;47280.75;4916313;29;20186;-83
2023/07/05 09:56:27;;;;;;;18.92;15.10;;;;;;;-141.97;38.86;47286.53;4923762;29;20219;-83
2023/07/05 09:59:12;;;;;;;17.42;15.35;;;;;;;-141.97;38.31;47284.59;4935378;29;20185;-83
2023/07/05 10:01:40;;;;;;;16.83;15.00;;;;;;;-141.97;38.31;47267.31;4940986;29;20177;-83
2023/07/05 10:04:07;;;;;;;18.95;16.73;;;;;;;-141.97;38.34;47307.66;4918872;29;20189;-83
2023/07/05 10:06:37;;;;;;;20.45;15.57;;;;;;;-141.97;38.95;47128.94;4935753;29;20213;-85
2023/07/05 10:09:15;;;;;;;19.15;16.30;;;;;;;-141.97;39.15;47288.44;4935796;29;20173;-85
2023/07/05 10:11:47;;;;;;;19.25;15.77;;;;;;;-141.97;39.10;47292.28;4949020;28;20185;-85
2023/07/05 10:14:18;;;;;;;17.88;15.10;;;;;;;-141.97;39.03;47298.06;5030733;28;20186;-84
2023/07/05 10:16:53;;;;;;;15.30;13.75;;;;;;;-141.97;38.15;47321.13;5034060;28;20185;-84
2023/07/05 10:19:25;;;;;;;19.08;14.93;;;;;;;-141.97;38.46;47269.22;5034316;28;20272;-85
2023/07/05 10:22:16;;;;;;;17.52;15.30;;;;;;;-141.97;38.59;47315.34;5033112;28;20265;-84
2023/07/05 10:24:45;;;;;;;15.93;14.02;;;;;;;-141.97;38.77;47286.53;5011193;28;20195;-85
2023/07/05 10:27:33;;;;;;;16.63;13.85;;;;;;;-141.97;38.91;47315.34;5011992;28;20183;-84
2023/07/05 10:30:03;;;;;;;14.80;13.20;;;;;;;-141.97;39.28;47286.53;5011619;28;20569;-84
2023/07/05 10:32:30;;;;;;;14.18;12.50;;;;;;;-141.97;39.62;47324.97;5012042;28;20194;-85
2023/07/05 10:34:57;;;;;;;13.85;12.40;;;;;;;-141.97;38.98;47324.97;5011071;28;20226;-85
2023/07/05 10:37:35;;;;;;;14.52;12.18;;;;;;;-141.97;39.09;47317.28;4995029;28;20663;-84
2023/07/05 10:40:09;;;;;;;14.38;12.07;;;;;;;-141.97;39.11;47261.53;5012557;28;20178;-84
2023/07/05 10:42:45;;;;;;;13.77;11.82;;;;;;;-141.97;38.50;47319.19;5013536;28;20365;-84
2023/07/05 10:45:15;;;;;;;13.80;12.35;;;;;;;-141.97;38.86;47271.16;5012316;28;20206;-85
2023/07/05 10:47:42;;;;;;;13.30;12.00;;;;;;;-141.97;38.76;47298.06;5012567;28;20253;-85
2023/07/05 10:50:09;;;;;;;16.42;12.13;;;;;;;-141.97;38.56;47242.31;4993041;28;20198;-84
2023/07/05 10:52:37;;;;;;;13.98;12.25;;;;;;;-141.97;38.41;47253.84;5010923;28;20178;-85
2023/07/05 10:55:14;;;;;;;15.50;11.93;;;;;;;-141.97;38.70;47346.09;5010717;28;20187;-83
2023/07/05 10:58:08;;;;;;;14.38;11.68;;;;;;;-141.97;38.64;47278.84;5010630;28;20206;-83
2023/07/05 11:00:39;;;;;;;12.80;11.43;;;;;;;-141.97;38.63;47303.81;5021818;28;20197;-82
2023/07/05 11:03:25;;;;;;;14.07;12.32;;;;;;;-141.97;39.24;47292.28;5055498;28;20174;-83
2023/07/05 11:05:55;;;;;;;17.65;12.38;;;;;;;-141.97;39.25;47301.91;5037050;28;20686;-83
2023/07/05 11:08:28;;;;;;;14.32;12.32;;;;;;;-141.97;39.36;47284.59;5031418;28;20174;-82
2023/07/05 11:10:58;;;;;;;13.75;12.20;;;;;;;-141.97;39.46;47315.34;5031281;28;20644;-84